Tiempo atmosférico en la estación meteorológica de Ávila, Ávila (1130 m.)



Fecha
DESCASC
Temp. máxima en grados centígrados (hora)
DESCASC
Temp. mínima en grados centígrados (hora)
DESCASC
Temp. media en grados centígrados
DESCASC
Racha de viento máxima en m/sg (hora)
DESCASC
Velocidad máxima media en intervalos de 10 minutos(hora)
DESCASC
Precipitaciones diarias en mm
DESCASC
Precipitaciones de 00:00 a 06:00 en mm
DESCASC
Precipitaciones de 06:00 a 12:00 en mm
DESCASC
Precipitaciones de 12:00 a 18:00 en mm
DESCASC
Precipitaciones de 18:00 a 24:00 en mm
DESCASC
23-06-2019 28 (16:00) 13.8 (05:50) 20.9 13.33 (14:40) 7.78 (14:40) 0 0 0 0 0
22-06-2019 27.9 (16:30) 10.5 (07:00) 19.2 9.17 (12:50) 5 (12:50) 0 0 0 0 0
21-06-2019 23 (19:40) 11.7 (07:10) 17.3 9.17 (01:00) 5.28 (01:50) 0 0 0 0 0
20-06-2019 24 (15:30) 14.1 (00:00) 19.1 10 (20:20) 5.56 (15:50) 0 0 0 0 0
19-06-2019 24.5 (14:50) 12.2 (00:00) 18.3 9.72 (17:40) 5 (16:30) 0 0 0 0 0
18-06-2019 24.9 (16:40) 15.6 (00:00) 20.3 12.22 (14:30) 6.67 (10:10) 0 0 0 0 0
17-06-2019 26.9 (16:50) 9.9 (00:00) 18.4 10.56 (17:10) 5.28 (14:10) 0 0 0 0 0
16-06-2019 26.6 (18:40) 7.9 (00:00) 17.3 8.89 (12:20) 4.44 (10:20) 0 0 0 0 0
15-06-2019 21.7 (17:10) 7 (00:00) 14.4 7.78 (17:40) 4.17 (18:50) 0 0 0 0 0
14-06-2019 22.1 (16:20) 8.3 (00:00) 15.2 11.67 (13:40) 6.67 (19:10) 0 0 0 0 0
13-06-2019 23.4 (18:10) 7.5 (00:00) 15.4 12.22 (13:10) 5.83 (12:00) 0 0 0 0 0
12-06-2019 22.1 (16:40) 4.2 (00:00) 13.2 8.33 (15:40) 3.89 (17:10) 0 0 0 0 0
11-06-2019 16.8 (17:20) 7.9 (00:00) 12.3 13.61 (16:10) 7.5 (11:30) 0 0 0 0 0
10-06-2019 21.5 (19:20) 8.1 (00:00) 14.8 9.72 (17:10) 5.56 (01:40) 0 0 0 0 0
09-06-2019 22.8 (17:10) 10 (00:00) 16.4 11.11 (15:20) 6.67 (21:10) 0 0 0 0 0
08-06-2019 24 (16:30) 4.4 (00:00) 14.2 11.39 (15:10) 5 (13:50) 0 0 0 0 0
07-06-2019 16.9 (17:50) 5.1 (00:00) 11 10 (18:00) 6.11 (04:30) 4.2 4.2 0 0 0
06-06-2019 18.7 (18:10) 4.9 (00:00) 11.8 14.17 (15:00) 7.78 (15:20) 0 0 0 0 0
05-06-2019 16.9 (17:40) 7 (00:00) 11.9 12.78 (15:20) 6.94 (02:40) 0 0 0 0 0
04-06-2019 24.6 (17:10) 12.3 (00:00) 18.5 10.83 (18:30) 6.11 (19:50) 0 0 0 0 0
03-06-2019 29.9 (16:20) 15.1 (00:00) 22.5 12.5 (17:20) 6.67 (15:10) 0 0 0 0 0
02-06-2019 30.7 (14:40) 14.5 (00:00) 22.6 10.83 (18:00) 5.28 (18:50) 0 0 0 0 0
01-06-2019 31 (18:20) 14 (00:00) 22.5 10 (17:00) 4.17 (17:00) 0 0 0 0 0
31-05-2019 29.6 (18:50) 13.5 (00:00) 21.6 8.61 (17:20) 4.72 (03:00) 0 0 0 0 0
30-05-2019 26.9 (17:40) 7.8 (00:00) 17.3 10.83 (18:40) 4.72 (18:00) 0 0 0 0 0
29-05-2019 21.4 (18:40) 5.4 (00:00) 13.4 10.56 (17:20) 6.11 (20:30) 0 0 0 0 0
28-05-2019 21.2 (18:10) 7.1 (00:00) 14.2 11.11 (17:00) 6.67 (18:30) 0 0 0 0 0

Gráficas

Temp. máximas Temp. mínimas Temp. medias Precipitaciones Rachas de viento máximas Velocidades máximas media en intervalos de 10 minutos

Datos horarios

Fecha y hora oficial Temperatura (ºC) Velocidad del viento (km/h) Dirección del viento Racha (km/h) Dirección de racha Precipitación (mm) Presión (hPa) Tendencia (hPa) Humedad (%)
2019-06-26 23:00:00 24.2 4 Sur 14 Sur 0 891.2 1.2 43
2019-06-26 22:00:00 26.3 8 Sur 26 Sur 0 890.6 1 38
2019-06-26 21:00:00 28.6 14 Sudoeste 25 Sur 0 890.3 0.5 34
2019-06-26 20:00:00 29.7 15 Sur 32 Sur 0 890 -0.2 32
2019-06-26 19:00:00 30.4 15 Sur 46 Sur 0 889.6 -0.9 30
2019-06-26 18:00:00 30.1 18 Sudeste 46 Sur 0 889.8 -1 30
2019-06-26 17:00:00 30.2 16 Sur 40 Sudoeste 0 890.2 -0.7 30
2019-06-26 16:00:00 29.5 17 Sur 37 Sur 0 890.5 -0.5 30
2019-06-26 15:00:00 28.6 18 Sur 46 Sur 0 890.8 -0.2 32
2019-06-26 14:00:00 28 18 Sur 43 Sur 0 890.9 -0.1 34
2019-06-26 13:00:00 27 18 Sur 42 Sur 0 891 0.1 36
2019-06-26 12:00:00 25.7 22 Sur 45 Sur 0 891 0.4 39
2019-06-26 11:00:00 24.7 22 Sur 36 Sur 0 891 0.8 40
2019-06-26 10:00:00 23.6 12 Sur 29 Sur 0 890.9 1.2 39
2019-06-26 09:00:00 21.9 12 Sur 31 Sur 0 890.6 1.2 42
2019-06-26 08:00:00 20.3 15 Sur 28 Sur 0 890.2 0.9 48
2019-06-26 07:00:00 19.4 11 Sur 24 Sudeste 0 889.7 0.5 49
2019-06-26 06:00:00 19.8 8 Sudeste 20 Sur 0 889.4 0 48
2019-06-26 05:00:00 20.1 11 Sur 22 Sudeste 0 889.3 -0.5 48
2019-06-26 04:00:00 20.5 12 Sudeste 21 Sur 0 889.2 -0.7 45
2019-06-26 03:00:00 19.1 8 Sudeste 14 Sudeste 0 889.4 -0.7 58
2019-06-26 02:00:00 19.2 3 Noroeste 7 Oeste 0 889.8 -0.2 66
2019-06-26 01:00:00 20.4 4 Norte 9 Norte 0 889.9 0.5 62
2019-06-26 00:00:00 21.5 4 Nordeste 15 Norte 0 890.1 1 58
2019-06-25 23:00:00 23.2 10 Norte 17 Norte 0 890 0.9 48
2019-06-25 22:00:00 26.5 5 Sudoeste 21 Sur 0 889.4 0.4 27
2019-06-25 21:00:00 28.5 13 Sur 30 Sudoeste 0 889.1 -0.2 24
2019-06-25 20:00:00 29 17 Sur 32 Sur 0 889.1 -0.5 24
2019-06-25 19:00:00 29.4 16 Sur 32 Sur 0 889 -0.9 26
2019-06-25 18:00:00 29.8 14 Sur 37 Sur 0 889.3 -0.8 28
2019-06-25 17:00:00 29.1 16 Sur 37 Sudoeste 0 889.6 -0.7 30
2019-06-25 16:00:00 28.3 17 Sur 35 Sur 0 889.9 -0.5 32
2019-06-25 15:00:00 26.7 15 Sudoeste 35 Sur 0 890.1 -0.2 36
2019-06-25 14:00:00 27 17 Sur 33 Sur 0 890.3 0.2 35
2019-06-25 13:00:00 25.6 21 Sur 39 Sur 0 890.4 0.1 38
2019-06-25 12:00:00 24.8 11 Sur 30 Sudeste 0 890.3 0.3 45
2019-06-25 11:00:00 22.6 8 Sudeste 21 Sudeste 0 890.1 0.1 52
2019-06-25 10:00:00 16.9 4 Sudeste 8 Sur 0 890.3 0.6 67
2019-06-25 09:00:00 13.7 3 Oeste 8 Sur 0 890 0.4 75
2019-06-25 08:00:00 12.6 5 Sur 8 Sur 0 890 0.3 77
2019-06-25 07:00:00 12.4 4 Sur 8 Sur 0 889.7 -0.1 80
2019-06-25 06:00:00 12 5 Sudeste 8 Sudeste 0 889.6 -0.6 82
2019-06-25 05:00:00 11.9 4 Sudeste 8 Sur 0 889.7 -0.5 81
2019-06-25 04:00:00 11.9 2 Sudeste 8 Sur 0 889.8 -0.5 80
2019-06-25 03:00:00 12.3 4 Sur 11 Sur 0 890.2 -0.2 78
2019-06-25 02:00:00 13 4 Sur 8 Sudoeste 0 890.2 -0.1 76
2019-06-25 01:00:00 13.4 4 Sudoeste 8 Sudoeste 0 890.3 0.2 74
2019-06-25 00:00:00 13.8 6 Noroeste 14 Norte 0 890.4 0.2 73
2019-06-24 23:00:00 14.5 7 Norte 19 Nordeste 0 890.3 1 70
2019-06-24 22:00:00 15.5 13 Norte 23 Norte 0 890.1 1.6 69
2019-06-24 21:00:00 17.3 18 Noroeste 36 Norte 0 890.2 1.8 63
2019-06-24 20:00:00 21.2 26 Noroeste 36 Noroeste 0 889.3 1.3 51
2019-06-24 19:00:00 23.5 21 Noroeste 31 Noroeste 0 888.5 0.4 45
2019-06-24 18:00:00 24.7 13 Noroeste 25 Noroeste 0 888.4 0.5 41
2019-06-24 17:00:00 27.2 12 Sudoeste 35 Sur 0 888 -0.1 30
2019-06-24 16:00:00 25.5 15 Sur 30 Sur 0 888.1 -0.3 33
2019-06-24 15:00:00 24.8 18 Sur 32 Sur 0 887.9 -0.5 30
2019-06-24 14:00:00 24.3 16 Sur 35 Sudoeste 0 888.1 -0.1 36
2019-06-24 13:00:00 22.9 14 Sur 27 Sudeste 0 888.4 0 36
2019-06-24 12:00:00 21.3 16 Sudeste 32 Sudeste 0 888.4 0.3 37
2019-06-24 11:00:00 21.6 12 Sudeste 23 Sudeste 0 888.2 0.4 36
2019-06-24 10:00:00 20 10 Sudeste 21 Sudeste 0 888.4 0.7 39
2019-06-24 09:00:00 19 8 Sudeste 16 Sudeste 0 888.1 0.4 42
2019-06-24 08:00:00 17.8 4 Sudeste 12 Sudeste 0 887.8 0.1 43
2019-06-24 07:00:00 16.3 2 Nordeste 7 Sudeste 0 887.7 0 44
2019-06-24 06:00:00 16.7 4 Sur 9 Sur 0 887.7 -0.2 43
2019-06-24 05:00:00 17.3 2 Sudoeste 7 Sudoeste 0 887.7 -0.5 41
2019-06-24 04:00:00 18.3 4 Sudoeste 6 Sudoeste 0 887.7 -0.7 41
2019-06-24 03:00:00 18.9 2 Sudeste 6 Oeste 0 887.9 -0.7 42
2019-06-24 02:00:00 19.3 2 Sur 9 Este 0 888.2 0.1 39
2019-06-24 01:00:00 20 6 Este 15 Nordeste 0 888.4 0.8 34
2019-06-24 00:00:00 21.1 9 Norte 17 Norte 0 888.6 1.2 29
2019-06-23 23:00:00 22.5 3 Noroeste 10 Oeste 0 888.1 0.9 31
2019-06-23 22:00:00 23.4 6 Noroeste 14 Oeste 0 887.6 0.2 29
2019-06-23 21:00:00 24.4 8 Sudoeste 17 Sudoeste 0 887.4 -0.1 27
2019-06-23 20:00:00 25.4 10 Sudoeste 19 Sudoeste 0 887.2 -0.4 25
2019-06-23 19:00:00 25.9 10 Sur 30 Sudoeste 0 887.4 -0.6 25
2019-06-23 18:00:00 26.7 13 Sudoeste 29 Sur 0 887.5 -0.7 23
2019-06-23 17:00:00 27.6 14 Sur 34 Sudoeste 0 887.6 -0.7 21
2019-06-23 16:00:00 28 17 Sur 45 Sudoeste 0 888 -0.5 20
2019-06-23 15:00:00 27.2 19 Sur 48 Sur 0 888.2 -0.2 22
2019-06-23 14:00:00 25.8 22 Sur 45 Sur 0 888.3 0.2 27
2019-06-23 13:00:00 24.9 18 Sur 37 Sur 0 888.5 0.4 28
2019-06-23 12:00:00 24 21 Sur 37 Sur 0 888.4 0.5 28
2019-06-23 11:00:00 24.2 18 Sur 36 Sur 0 888.1 0.1 28
2019-06-23 10:00:00 22.3 14 Sur 27 Sudoeste 0 888.1 0.3 30
2019-06-23 09:00:00 19.7 5 Sudeste 10 Este 0 887.9 0.1 35
2019-06-23 08:00:00 15.8 2 Sudeste 6 Sur 0 888 0.4 49
2019-06-23 07:00:00 15 6 Noroeste 13 Oeste 0 887.8 0.5 48
2019-06-23 06:00:00 13.9 5 Este 7 Oeste 0 887.8 0.3 55
2019-06-23 05:00:00 14.6 4 Noroeste 8 Oeste 0 887.6 -0.3 50
2019-06-23 04:00:00 14.9 2 Sudoeste 7 Sudeste 0 887.3 -0.9 49
2019-06-23 03:00:00 16 4 Sudeste 8 Sur 0 887.5 -0.9 46
2019-06-23 02:00:00 17.6 2 Oeste 15 Sur 0 887.9 -0.6 42
2019-06-23 01:00:00 19 8 Sudeste 14 Sudeste 0 888.2 0.1 38
2019-06-23 00:00:00 19.1 5 Este 7 Este 0 888.4 0.6 39
2019-06-22 23:00:00 21.1 4 Sudeste 12 Sur 0 888.5 1 35
2019-06-22 22:00:00 23.6 9 Sudoeste 23 Sur 0 888.1 0.6 31
2019-06-22 21:00:00 25.5 11 Sur 29 Sur 0 887.8 0.1 27
2019-06-22 20:00:00 26.6 13 Sur 27 Sur 0 887.5 -0.5 23
2019-06-22 19:00:00 27 11 Sudoeste 28 Sur 0 887.5 -0.9 22
2019-06-22 18:00:00 27.3 13 Sur 31 Sur 0 887.7 -1.1 24
2019-06-22 17:00:00 27.8 9 Sur 27 Sudoeste 0 888 -1.3 25
2019-06-22 16:00:00 26.9 14 Sudeste 32 Sur 0 888.4 -1.4 27
2019-06-22 15:00:00 25.9 14 Sur 27 Sur 0 888.8 -1.1 28
2019-06-22 14:00:00 25.8 11 Sur 28 Sur 0 889.3 -0.9 29
2019-06-22 13:00:00 24.3 14 Sur 33 Sur 0 889.8 -0.6 31
2019-06-22 12:00:00 23.1 13 Sur 27 Sudeste 0 889.9 -0.6 39
2019-06-22 11:00:00 20.9 9 Sudeste 22 Sudeste 0 890.2 0 51
2019-06-22 10:00:00 18 10 Sur 22 Sur 0 890.4 0.4 64
2019-06-22 09:00:00 16.2 10 Sur 22 Sudeste 0 890.5 0.5 70
2019-06-22 08:00:00 13.7 8 Sur 12 Sur 0 890.2 0.3 68
2019-06-22 07:00:00 10.6 4 Sudeste 6 Sudeste 0 890 -0.3 74
2019-06-22 06:00:00 10.9 0 Calma 12 Sur 0 890 -0.8 71
2019-06-22 05:00:00 11.2 5 Sur 8 Sur 0 889.9 -1.3 68
2019-06-22 04:00:00 11.9 0 Calma 6 Sudeste 0 890.3 -1 68
2019-06-22 03:00:00 13.1 2 Sudeste 8 Sur 0 890.8 -0.5 63
2019-06-22 02:00:00 14.2 2 Sur 13 Este 0 891.2 0.1 60
2019-06-22 01:00:00 15.2 9 Este 28 Nordeste 0 891.3 0.8 57
2019-06-22 00:00:00 16.4 12 Nordeste 20 Nordeste 0 891.3 1.2 50
2019-06-21 23:00:00 17.5 9 Norte 17 Norte 0 891.1 1.3 45
2019-06-21 22:00:00 19.6 12 Norte 23 Norte 0 890.5 1 38
2019-06-21 21:00:00 21.7 13 Norte 23 Noroeste 0 890.1 0.3 34
2019-06-21 20:00:00 22.8 11 Noroeste 25 Norte 0 889.8 0 31
2019-06-21 19:00:00 22.2 13 Norte 33 Norte 0 889.5 -0.8 33
2019-06-21 18:00:00 22.3 10 Norte 30 Norte 0 889.8 -0.9 33
2019-06-21 17:00:00 21.6 15 Noroeste 26 Noroeste 0 889.8 -1.3 38
2019-06-21 16:00:00 19.8 12 Norte 30 Norte 0 890.3 -0.9 47
2019-06-21 15:00:00 18 9 Nordeste 26 Norte 0 890.7 -0.4 57
2019-06-21 14:00:00 15.5 13 Norte 25 Norte 0 891.1 0.3 67
2019-06-21 13:00:00 13.9 11 Norte 21 Norte 0 891.2 0.9 74
2019-06-21 12:00:00 13.3 14 Norte 23 Norte 0 891.1 1.2 78
2019-06-21 11:00:00 13.5 12 Norte 19 Norte 0 890.8 1.3 77
2019-06-21 10:00:00 13.6 8 Norte 13 Noroeste 0 890.3 1.2 77
2019-06-21 09:00:00 12.4 9 Noroeste 14 Noroeste 0 889.9 0.9 85
2019-06-21 08:00:00 12.1 7 Noroeste 14 Noroeste 0 889.5 0.6 87
2019-06-21 07:00:00 11.8 6 Nordeste 12 Norte 0 889.1 0 90
2019-06-21 06:00:00 12 9 Noroeste 13 Oeste 0 889 -0.4 88
2019-06-21 05:00:00 12.1 8 Oeste 13 Noroeste 0 888.9 -0.5 89
2019-06-21 04:00:00 12.2 6 Norte 14 Norte 0 889.1 -0.1 90
2019-06-21 03:00:00 12.5 8 Norte 26 Norte 0 889.4 0.4 89
2019-06-21 02:00:00 12.7 18 Norte 28 Norte 0 889.4 1 88
2019-06-21 01:00:00 14.2 18 Norte 33 Norte 0 889.2 1.5 81
2019-06-21 00:00:00 16.1 13 Noroeste 21 Noroeste 0 889 1.8 63
2019-06-20 23:00:00 17.3 8 Noroeste 19 Noroeste 0 888.4 1.6 56
2019-06-20 22:00:00 17.3 14 Norte 23 Nordeste 0 887.7 0.8 57
2019-06-20 21:00:00 17.2 14 Norte 36 Noroeste 0 887.2 0.3 64
2019-06-20 20:00:00 19.1 10 Oeste 27 Sudoeste 0 886.8 0.1 59
2019-06-20 19:00:00 19.2 9 Noroeste 21 Noroeste 0 886.9 -0.3 53
2019-06-20 18:00:00 19.4 18 Noroeste 30 Oeste 0 886.9 -0.4 49
2019-06-20 17:00:00 22.3 8 Noroeste 29 Noroeste 0 886.7 -1 37
2019-06-20 16:00:00 21.7 16 Noroeste 34 Noroeste 0 887.2 -0.9 42
2019-06-20 15:00:00 23.3 8 Sudeste 24 Sur 0 887.3 -0.9 36
2019-06-20 14:00:00 21.3 6 Oeste 20 Sur 0 887.7 -0.7 39
2019-06-20 13:00:00 20.7 8 Sudeste 23 Sur 0 888.1 -0.4 42
2019-06-20 12:00:00 20.9 5 Este 17 Sur 0 888.2 -0.6 44
2019-06-20 11:00:00 19 4 Sudeste 12 Nordeste 0 888.4 -0.3 51
2019-06-20 10:00:00 17.7 6 Nordeste 11 Sur 0 888.5 -0.4 56
2019-06-20 09:00:00 16.3 3 Sudoeste 6 Nordeste 0 888.8 0 59
2019-06-20 08:00:00 14.6 4 Oeste 9 Noroeste 0 888.7 -0.3 66
2019-06-20 07:00:00 14.1 6 Noroeste 12 Noroeste 0 888.9 -0.2 67
2019-06-20 06:00:00 14.3 6 Noroeste 12 Noroeste 0 888.8 -0.5 68
2019-06-20 05:00:00 14.4 6 Noroeste 12 Noroeste 0 889 -0.7 69
2019-06-20 04:00:00 14.4 5 Noroeste 13 Noroeste 0 889.1 -0.6 70
2019-06-20 03:00:00 14.8 7 Noroeste 12 Oeste 0 889.3 -0.3 69
2019-06-20 02:00:00 15.5 5 Noroeste 11 Noroeste 0 889.7 0.2 63
2019-06-20 01:00:00 16.3 6 Noroeste 13 Noroeste 0 889.7 0.6 57
2019-06-20 00:00:00 17.2 9 Noroeste 15 Noroeste 0 889.6 0.7 53
2019-06-19 23:00:00 18.3 9 Noroeste 17 Noroeste 0 889.5 1 48
2019-06-19 22:00:00 19.6 11 Noroeste 23 Oeste 0 889.1 0.8 44
2019-06-19 21:00:00 20.4 14 Noroeste 28 Noroeste 0 888.9 0.7 42
2019-06-19 20:00:00 21.1 17 Noroeste 33 Noroeste 0 888.5 0.3 41
2019-06-19 19:00:00 22.1 18 Noroeste 31 Noroeste 0 888.3 -0.1 38
2019-06-19 18:00:00 22.3 16 Noroeste 35 Noroeste 0 888.2 -0.2 38
2019-06-19 17:00:00 22.8 14 Noroeste 33 Norte 0 888.2 -0.5 37
2019-06-19 16:00:00 22.6 18 Norte 33 Nordeste 0 888.4 -0.6 38
2019-06-19 15:00:00 23.8 15 Norte 27 Norte 0 888.4 -0.7 38
2019-06-19 14:00:00 23.6 8 Sudoeste 15 Sudoeste 0 888.7 -0.2 35
2019-06-19 13:00:00 20.6 4 Oeste 18 Nordeste 0 889 0 44
2019-06-19 12:00:00 20.1 8 Oeste 14 Noroeste 0 889.1 0.4 48
2019-06-19 11:00:00 18.2 11 Norte 17 Norte 0 888.9 0.4 55
2019-06-19 10:00:00 17 4 Nordeste 8 Sur 0 889 0.3 60
2019-06-19 09:00:00 15.3 5 Sur 10 Sur 0 888.7 0.1 66
2019-06-19 08:00:00 13.2 5 Sudeste 11 Sur 0 888.5 0.2 73
2019-06-19 07:00:00 12.4 4 Sudoeste 8 Sur 0 888.7 0.6 75
2019-06-19 06:00:00 12.7 4 Sudoeste 9 Sur 0 888.6 0.2 76
2019-06-19 05:00:00 12.9 3 Sudeste 7 Sur 0 888.3 -0.1 75
2019-06-19 04:00:00 13.5 2 Sudeste 6 Nordeste 0 888.1 -0.5 71
2019-06-19 03:00:00 14.8 0 Calma 10 Sudoeste 0 888.4 -0.3 64
2019-06-19 02:00:00 16 5 Sudoeste 10 Sudoeste 0 888.4 -0.3 63
2019-06-19 01:00:00 16.6 4 Sur 15 Sur 0 888.6 0.3 58
2019-06-19 00:00:00 17 10 Sur 17 Sur 0 888.7 0.5 56
2019-06-18 23:00:00 18.2 11 Sudoeste 25 Sur 0 888.7 0.6 49
2019-06-18 22:00:00 19.5 12 Sudoeste 27 Sudoeste 0 888.3 0.6 43
2019-06-18 21:00:00 20.8 13 Sudoeste 35 Sudoeste 0 888.2 0.5 38
2019-06-18 20:00:00 23 15 Sudoeste 40 Sur 0 888.1 0.6 34
2019-06-18 19:00:00 23.2 17 Sur 39 Sudoeste 0 887.7 0 33
2019-06-18 18:00:00 24.1 14 Sudoeste 41 Sudoeste 0 887.7 -0.2 26
2019-06-18 17:00:00 24.6 18 Sudoeste 42 Sur 0 887.5 -0.5 20
2019-06-18 16:00:00 24.6 19 Sur 39 Sur 0 887.7 -0.4 18
2019-06-18 15:00:00 24.4 21 Sudoeste 44 Sudoeste 0 887.9 -0.2 15
2019-06-18 14:00:00 24 19 Sudoeste 38 Sur 0 888 0.1 14
2019-06-18 13:00:00 23.3 17 Sur 42 Sudoeste 0 888.1 0.3 14
2019-06-18 12:00:00 22.1 19 Sur 35 Sur 0 888.1 0.2 17
2019-06-18 11:00:00 20.8 19 Sudoeste 40 Sur 0 887.9 0.3 25
2019-06-18 10:00:00 19.6 22 Sur 38 Sur 0 887.8 0.4 27
2019-06-18 09:00:00 18.6 19 Sur 30 Sur 0 887.9 0.6 31
2019-06-18 08:00:00 16.8 15 Sur 27 Sur 0 887.6 0.3 32
2019-06-18 07:00:00 15.7 15 Sur 26 Sur 0 887.4 0 32
2019-06-18 06:00:00 16.4 8 Sudeste 20 Sur 0 887.3 -0.6 29
2019-06-18 05:00:00 17.7 9 Sur 19 Sur 0 887.3 -1 26
2019-06-18 04:00:00 17.2 6 Sur 14 Sur 0 887.4 -1.8 28
2019-06-18 03:00:00 18.2 5 Sudeste 14 Sudeste 0 887.9 -1.5 27
2019-06-18 02:00:00 19.1 12 Este 17 Este 0 888.3 -0.9 24
2019-06-18 01:00:00 20.1 8 Este 14 Nordeste 0 889.2 0.3 23
2019-06-18 00:00:00 20.9 3 Noroeste 6 Sudoeste 0 889.4 0.7 29
2019-06-17 23:00:00 21.8 5 Oeste 9 Sur 0 889.2 0.5 23
2019-06-17 22:00:00 22.7 6 Sudoeste 20 Oeste 0 888.9 0.3 22
2019-06-17 21:00:00 23.5 10 Sudoeste 23 Sudoeste 0 888.7 -0.2 22
2019-06-17 20:00:00 24.7 11 Sudoeste 24 Sudoeste 0 888.7 -0.4 22
2019-06-17 19:00:00 25.6 12 Sudoeste 32 Sudoeste 0 888.6 -1 16
2019-06-17 18:00:00 26.1 17 Sur 38 Sur 0 888.9 -0.9 18
2019-06-17 17:00:00 26.8 16 Sur 32 Sudoeste 0 889.1 -1.2 17
2019-06-17 16:00:00 26.2 18 Sudoeste 34 Sudeste 0 889.6 -0.9 17
2019-06-17 15:00:00 25.8 16 Sudoeste 37 Sur 0 889.8 -1.1 17
2019-06-17 14:00:00 25.6 14 Sur 34 Sudeste 0 890.3 -0.6 17
2019-06-17 13:00:00 24.8 16 Sur 35 Sur 0 890.5 -0.6 20
2019-06-17 12:00:00 24 15 Sur 35 Sur 0 890.9 -0.3 20
2019-06-17 11:00:00 23 7 Sudeste 14 Sur 0 890.9 -0.2 21
2019-06-17 10:00:00 19.7 4 Sudoeste 6 Sudoeste 0 891.1 0.2 23
2019-06-17 09:00:00 15.6 3 Sur 8 Sur 0 891.2 0.4 32
2019-06-17 08:00:00 12.2 5 Sur 9 Sur 0 891.1 0.3 39
2019-06-17 07:00:00 10.1 3 Sur 6 Sudeste 0 890.9 -0.2 40
2019-06-17 06:00:00 10.4 2 Sur 6 Sudeste 0 890.8 -0.5 44
2019-06-17 05:00:00 10.6 2 Sudeste 7 Sudeste 0 890.8 -0.6 47
2019-06-17 04:00:00 11.4 2 Sur 10 Sur 0 891.1 -0.6 46
2019-06-17 03:00:00 13.1 3 Sur 10 Sudeste 0 891.3 -0.5 42
2019-06-17 02:00:00 14.6 0 Calma 11 Sudeste 0 891.4 -0.4 40
2019-06-17 01:00:00 16 6 Sudeste 10 Sudeste 0 891.7 0.6 36
2019-06-17 00:00:00 16.7 3 Sudeste 9 Oeste 0 891.8 1.3 37
2019-06-16 23:00:00 19.7 6 Oeste 14 Oeste 0 891.8 1.7 28
2019-06-16 22:00:00 21.5 10 Oeste 22 Oeste 0 891.1 1.1 25
2019-06-16 21:00:00 23.3 15 Noroeste 29 Sur 0 890.5 0.4 21
2019-06-16 20:00:00 25.2 13 Sur 27 Sur 0 890.1 -0.4 17
2019-06-16 19:00:00 26.3 10 Sur 27 Sur 0 890 -0.8 17
2019-06-16 18:00:00 26.4 5 Sudeste 25 Sur 0 890.1 -1.1 18
2019-06-16 17:00:00 25 12 Sudeste 26 Sur 0 890.5 -1.1 19
2019-06-16 16:00:00 25.2 13 Sudeste 26 Sur 0 890.8 -1.1 21
2019-06-16 15:00:00 24.1 13 Sur 31 Sudeste 0 891.2 -0.7 19
2019-06-16 14:00:00 24 12 Sur 28 Sudeste 0 891.6 -0.5 23
2019-06-16 13:00:00 22.4 13 Sur 32 Sur 0 891.9 -0.1 23
2019-06-16 12:00:00 21.8 11 Sur 28 Sur 0 891.9 0.1 25
2019-06-16 11:00:00 20.5 15 Sur 29 Sur 0 892.1 0.5 28
2019-06-16 10:00:00 19.1 11 Sudeste 22 Sur 0 892 0.7 30
2019-06-16 09:00:00 15.5 8 Sudeste 15 Sudeste 0 891.8 0.6 38
2019-06-16 08:00:00 11.8 4 Sudeste 12 Sudeste 0 891.6 0.1 44
2019-06-16 07:00:00 8.6 5 Sudeste 10 Sudeste 0 891.3 -0.4 51
2019-06-16 06:00:00 7.9 2 Sudeste 6 Sudeste 0 891.2 -1 54
2019-06-16 05:00:00 8.6 2 Sudeste 8 Sudoeste 0 891.5 -1.2 52
2019-06-16 04:00:00 10.3 3 Sur 6 Sur 0 891.7 -1.3 45
2019-06-16 03:00:00 10.8 3 Sur 5 Sur 0 892.2 -0.6 45
2019-06-16 02:00:00 11.8 2 Sur 5 Sur 0 892.7 0.1 44
2019-06-16 01:00:00 13.1 2 Sur 8 Sudeste 0 893 1 39
2019-06-16 00:00:00 14.7 4 Sudeste 9 Norte 0 892.8 1.1 37
2019-06-15 23:00:00 16.5 6 Nordeste 10 Norte 0 892.6 1.1 30
2019-06-15 22:00:00 18.2 8 Norte 21 Norte 0 892 0.6 28
2019-06-15 21:00:00 20.3 13 Noroeste 22 Noroeste 0 891.7 0.2 25
2019-06-15 20:00:00 20.9 14 Norte 25 Norte 0 891.5 -0.1 26
2019-06-15 19:00:00 21.6 10 Noroeste 25 Noroeste 0 891.4 -0.3 26
2019-06-15 18:00:00 21.3 11 Norte 28 Norte 0 891.5 -0.5 27
2019-06-15 17:00:00 21.5 10 Noroeste 20 Noroeste 0 891.6 -0.6 27
2019-06-15 16:00:00 20.7 8 Sudoeste 21 Norte 0 891.7 -0.7 28
2019-06-15 15:00:00 19 5 Nordeste 22 Norte 0 892 -0.5 32
2019-06-15 14:00:00 18.7 8 Noroeste 22 Oeste 0 892.2 -0.2 33
2019-06-15 13:00:00 16.3 4 Norte 15 Norte 0 892.4 0.2 38
2019-06-15 12:00:00 14.8 4 Sudeste 19 Noroeste 0 892.5 0.6 43
2019-06-15 11:00:00 13.4 8 Noroeste 18 Noroeste 0 892.4 0.8 50
2019-06-15 10:00:00 12.1 6 Oeste 14 Sudoeste 0 892.2 0.9 52
2019-06-15 09:00:00 10.1 5 Sudoeste 11 Sur 0 891.9 0.8 63
2019-06-15 08:00:00 8 4 Sur 8 Noroeste 0 891.6 0.8 75
2019-06-15 07:00:00 7 5 Noroeste 12 Noroeste 0 891.3 0.3 81
2019-06-15 06:00:00 7.4 6 Noroeste 13 Noroeste 0 891.1 0.2 78
2019-06-15 05:00:00 8.1 8 Noroeste 15 Noroeste 0 890.8 0 74
2019-06-15 04:00:00 8.8 8 Noroeste 14 Oeste 0 891 0.3 67
2019-06-15 03:00:00 9 8 Noroeste 17 Oeste 0 890.9 0.7 65
2019-06-15 02:00:00 9.7 8 Noroeste 20 Noroeste 0 890.8 1.3 62
2019-06-15 01:00:00 10.3 11 Noroeste 19 Noroeste 0 890.7 2.3 59
2019-06-15 00:00:00 11.9 11 Noroeste 23 Oeste 0 890.2 2.6 50
2019-06-14 23:00:00 13.6 13 Oeste 29 Oeste 0 889.5 2.9 44
2019-06-14 22:00:00 15.3 14 Oeste 30 Oeste 0 888.4 2.6 35
2019-06-14 21:00:00 17.5 18 Oeste 35 Sudoeste 0 887.6 2 33
2019-06-14 20:00:00 19.6 18 Oeste 37 Noroeste 0 886.6 1.2 29
2019-06-14 19:00:00 20.2 21 Noroeste 41 Noroeste 0 885.8 0.3 26
2019-06-14 18:00:00 21.8 15 Sudoeste 28 Sudoeste 0 885.6 0.4 20
2019-06-14 17:00:00 21.4 15 Sur 34 Oeste 0 885.4 0.1 20
2019-06-14 16:00:00 21.8 15 Sudoeste 38 Sudeste 0 885.5 0.4 19
2019-06-14 15:00:00 21.4 16 Sur 39 Sur 0 885.2 0.1 21
2019-06-14 14:00:00 20 21 Sur 42 Sur 0 885.3 0.3 25
2019-06-14 13:00:00 19 18 Sur 35 Sur 0 885.1 0.1 27
2019-06-14 12:00:00 18 19 Sur 36 Sur 0 885.1 0.2 29
2019-06-14 11:00:00 17.5 17 Sur 38 Sur 0 885 0.5 26
2019-06-14 10:00:00 16.4 6 Sudeste 11 Este 0 885 0.7 28
2019-06-14 09:00:00 13.3 5 Sur 14 Noroeste 0 884.9 0.7 38
2019-06-14 08:00:00 11.2 8 Oeste 15 Oeste 0 884.5 0.3 41
2019-06-14 07:00:00 8.4 3 Este 9 Sudeste 0 884.3 -0.1 48
2019-06-14 06:00:00 8.7 2 Sur 6 Sudeste 0 884.2 -0.7 48
2019-06-14 05:00:00 9.7 2 Sur 6 Este 0 884.2 -0.7 42
2019-06-14 04:00:00 10.9 3 Sur 9 Sudeste 0 884.4 -0.8 36
2019-06-14 03:00:00 12.9 2 Oeste 10 Noroeste 0 884.9 -0.3 34
2019-06-14 02:00:00 14.3 5 Noroeste 14 Norte 0 884.9 0 29
2019-06-14 01:00:00 14.4 6 Noroeste 9 Noroeste 0 885.2 1 27
2019-06-14 00:00:00 15.7 8 Sudeste 15 Norte 0 885.2 1.5 22
2019-06-13 23:00:00 16.7 3 Oeste 12 Sudoeste 0 884.9 1.8 22
2019-06-13 22:00:00 18.3 8 Sudoeste 19 Sur 0 884.2 1.3 20
2019-06-13 21:00:00 19.4 10 Sudoeste 26 Sur 0 883.7 0.8 19
2019-06-13 20:00:00 21.2 10 Sudoeste 30 Sudoeste 0 883.1 0.2 17
2019-06-13 19:00:00 21.6 13 Sur 37 Sur 0 882.9 -0.4 18
2019-06-13 18:00:00 23.1 15 Sur 37 Sudoeste 0 882.9 -0.6 19
2019-06-13 17:00:00 23 16 Sur 38 Sur 0 882.9 -0.8 18
2019-06-13 16:00:00 22.7 16 Sudoeste 36 Sur 0 883.3 -0.6 20
2019-06-13 15:00:00 21.9 15 Sur 40 Sur 0 883.5 -0.5 22
2019-06-13 14:00:00 20.8 20 Sur 44 Sur 0 883.7 0 23
2019-06-13 13:00:00 20.3 17 Sur 40 Sudoeste 0 883.9 0.4 25
2019-06-13 12:00:00 18.8 21 Sur 38 Sur 0 884 0.8 24
2019-06-13 11:00:00 17.2 17 Sur 33 Sur 0 883.7 0.8 32
2019-06-13 10:00:00 15.2 15 Sudeste 33 Sudeste 0 883.5 0.5 47
2019-06-13 09:00:00 13.8 14 Sudeste 27 Sudeste 0 883.2 0.1 55
2019-06-13 08:00:00 11.6 10 Sudeste 21 Este 0 882.9 0 62
2019-06-13 07:00:00 8.2 7 Sudeste 12 Este 0 883 0.1 51
2019-06-13 06:00:00 7.7 3 Sudeste 11 Sudeste 0 883.1 -0.2 46
2019-06-13 05:00:00 8.4 5 Sudeste 14 Sudoeste 0 882.9 -0.8 41
2019-06-13 04:00:00 8.5 9 Sur 13 Sudoeste 0 882.9 -1.2 39
2019-06-13 03:00:00 9.3 0 Calma 9 Sur 0 883.3 -1.1 40
2019-06-13 02:00:00 10.3 4 Sur 8 Sur 0 883.7 -0.7 38
2019-06-13 01:00:00 11.6 3 Sudeste 8 Este 0 884.1 0.1 33
2019-06-13 00:00:00 14 5 Sudeste 14 Sudeste 0 884.4 0.7 26
2019-06-12 23:00:00 16.2 5 Oeste 15 Oeste 0 884.4 0.8 24
2019-06-12 22:00:00 17.9 6 Sudoeste 19 Sur 0 884 0.3 19
2019-06-12 21:00:00 19.5 6 Sudoeste 17 Sudoeste 0 883.7 -0.2 20
2019-06-12 20:00:00 19.7 8 Noroeste 15 Noroeste 0 883.6 -0.5 22
2019-06-12 19:00:00 19.9 6 Sudeste 18 Sur 0 883.7 -0.9 21
2019-06-12 18:00:00 20.3 11 Noroeste 23 Sudoeste 0 883.9 -1.4 22
2019-06-12 17:00:00 21.7 11 Sudoeste 26 Sudoeste 0 884.1 -1.8 20
2019-06-12 16:00:00 20.8 5 Sudoeste 30 Sur 0 884.6 -1.5 22
2019-06-12 15:00:00 19.3 9 Sudeste 26 Sudoeste 0 885.3 -1.2 25
2019-06-12 14:00:00 17.2 7 Sur 25 Sudoeste 0 885.9 -0.9 29
2019-06-12 13:00:00 17.1 8 Este 22 Sudoeste 0 886.1 -1 28
2019-06-12 12:00:00 15.9 8 Sudoeste 21 Sudoeste 0 886.5 -0.8 32
2019-06-12 11:00:00 13.7 4 Nordeste 13 Sudeste 0 886.8 -0.4 41
2019-06-12 10:00:00 10.2 4 Noroeste 9 Sur 0 887.1 0.1 54
2019-06-12 09:00:00 7.6 6 Sur 8 Sur 0 887.3 0.4 60
2019-06-12 08:00:00 6.4 3 Sur 6 Sur 0 887.2 0.1 62
2019-06-12 07:00:00 4.3 4 Sur 7 Sur 0 887 -0.3 67
2019-06-12 06:00:00 5.2 4 Oeste 8 Norte 0 886.9 -0.6 70
2019-06-12 05:00:00 5.6 4 Noroeste 15 Norte 0 887.1 -0.6 65
2019-06-12 04:00:00 6.2 7 Noroeste 13 Norte 0 887.3 -0.7 60
2019-06-12 03:00:00 6.9 5 Sur 8 Sur 0 887.5 -0.7 52
2019-06-12 02:00:00 8.1 4 Noroeste 12 Norte 0 887.7 -0.3 51
2019-06-12 01:00:00 9.3 8 Norte 17 Norte 0 888 0.4 46
2019-06-12 00:00:00 10.5 6 Norte 19 Norte 0 888.2 0.8 40
2019-06-11 23:00:00 11.8 10 Norte 21 Noroeste 0 888 0.8 36
2019-06-11 22:00:00 13.4 14 Norte 30 Norte 0 887.6 0.7 30
2019-06-11 21:00:00 15.3 17 Norte 38 Noroeste 0 887.4 0.5 26
2019-06-11 20:00:00 16.2 20 Noroeste 35 Noroeste 0 887.2 0.1 22
2019-06-11 19:00:00 16.5 15 Norte 37 Norte 0 886.9 -0.3 21
2019-06-11 18:00:00 16.3 20 Norte 45 Noroeste 0 886.9 -0.4 24
2019-06-11 17:00:00 16.4 16 Noroeste 49 Noroeste 0 887.1 -0.4 24
2019-06-11 16:00:00 15.3 16 Norte 44 Noroeste 0 887.2 -0.2 25
2019-06-11 15:00:00 14.1 15 Norte 28 Nordeste 0 887.3 0 35
2019-06-11 14:00:00 13.3 19 Norte 32 Nordeste 0 887.5 0.7 45
2019-06-11 13:00:00 11.6 13 Norte 26 Norte 0 887.4 0.6 52
2019-06-11 12:00:00 9.9 16 Norte 40 Norte 0 887.3 0.6 64
2019-06-11 11:00:00 9.5 22 Norte 35 Norte 0 886.8 0.4 68
2019-06-11 10:00:00 8.7 19 Norte 30 Norte 0 886.8 0.6 71
2019-06-11 09:00:00 8.1 10 Norte 25 Norte 0 886.7 0.4 78
2019-06-11 08:00:00 8.1 14 Norte 23 Noroeste 0 886.4 0 78
2019-06-11 07:00:00 8.7 13 Norte 23 Noroeste 0 886.2 -0.5 75
2019-06-11 06:00:00 9.4 11 Norte 18 Norte 0 886.3 -0.9 73
2019-06-11 05:00:00 10.7 13 Noroeste 26 Noroeste 0 886.4 -0.9 65
2019-06-11 04:00:00 11.9 15 Noroeste 27 Noroeste 0 886.7 -0.9 55
2019-06-11 03:00:00 12.6 15 Noroeste 27 Noroeste 0 887.2 -0.6 55
2019-06-11 02:00:00 13.2 11 Noroeste 21 Noroeste 0 887.3 -0.5 50
2019-06-11 01:00:00 14 10 Noroeste 23 Noroeste 0 887.6 0.3 35
2019-06-11 00:00:00 14.8 15 Noroeste 27 Oeste 0 887.8 0.8 29
2019-06-10 23:00:00 15.6 16 Noroeste 34 Noroeste 0 887.8 0.6 26
2019-06-10 22:00:00 17.4 17 Noroeste 28 Noroeste 0 887.3 -0.3 30
2019-06-10 21:00:00 20 18 Noroeste 33 Noroeste 0 887 -1.2 24
2019-06-10 20:00:00 20.8 17 Noroeste 30 Norte 0 887.2 -1.5 22
2019-06-10 19:00:00 21.2 12 Noroeste 29 Noroeste 0 887.6 -1.6 19
2019-06-10 18:00:00 20.7 12 Noroeste 35 Noroeste 0 888.2 -1.3 22
2019-06-10 17:00:00 20.6 14 Noroeste 30 Noroeste 0 888.7 -1.4 25
2019-06-10 16:00:00 19.7 18 Noroeste 32 Noroeste 0 889.2 -1.3 27
2019-06-10 15:00:00 18.5 14 Norte 28 Noroeste 0 889.5 -1.3 31
2019-06-10 14:00:00 17.2 10 Noroeste 26 Noroeste 0 890.1 -0.7 38
2019-06-10 13:00:00 16.4 13 Norte 26 Norte 0 890.5 -0.4 45
2019-06-10 12:00:00 14.8 10 Norte 26 Norte 0 890.8 -0.1 53
2019-06-10 11:00:00 13.1 17 Norte 26 Norte 0 890.8 0.2 56
2019-06-10 10:00:00 11.3 12 Norte 20 Norte 0 890.9 0.6 74
2019-06-10 09:00:00 9.7 10 Norte 15 Norte 0 890.9 0.5 82
2019-06-10 08:00:00 8.7 6 Noroeste 13 Noroeste 0 890.6 0.3 87
2019-06-10 07:00:00 8.7 6 Noroeste 13 Norte 0 890.3 -0.7 87
2019-06-10 06:00:00 8.1 6 Noroeste 11 Norte 0 890.4 -0.9 88
2019-06-10 05:00:00 8.7 8 Noroeste 14 Noroeste 0 890.3 -1.1 80
2019-06-10 04:00:00 10.1 6 Noroeste 21 Noroeste 0 891 -0.4 65
2019-06-10 03:00:00 11.5 11 Noroeste 33 Noroeste 0 891.3 0 60
2019-06-10 02:00:00 12.7 19 Noroeste 33 Noroeste 0 891.4 0.4 55
2019-06-10 01:00:00 12.6 14 Noroeste 26 Noroeste 0 891.4 1.2 55
2019-06-10 00:00:00 14 16 Noroeste 32 Noroeste 0 891.3 1.8 49
2019-06-09 23:00:00 15.6 19 Noroeste 33 Noroeste 0 891 1.9 43
2019-06-09 22:00:00 16.7 22 Noroeste 40 Norte 0 890.2 1.7 38
2019-06-09 21:00:00 18.2 22 Noroeste 39 Noroeste 0 889.5 1 32
2019-06-09 20:00:00 19.9 24 Noroeste 38 Noroeste 0 889.1 0.4 28
2019-06-09 19:00:00 21.1 17 Noroeste 33 Noroeste 0 888.5 -0.6 26
2019-06-09 18:00:00 22.5 14 Oeste 33 Noroeste 0 888.5 -1 24
2019-06-09 17:00:00 22.6 17 Noroeste 31 Oeste 0 888.7 -1.1 24
2019-06-09 16:00:00 21.1 12 Noroeste 40 Norte 0 889.1 -0.9 26
2019-06-09 15:00:00 20.4 19 Norte 33 Noroeste 0 889.5 -0.6 25
2019-06-09 14:00:00 19.9 15 Noroeste 32 Noroeste 0 889.8 -0.3 30
2019-06-09 13:00:00 19.1 13 Norte 25 Noroeste 0 890 0 35
2019-06-09 12:00:00 17.6 12 Norte 25 Norte 0 890.1 0.3 40
2019-06-09 11:00:00 16.1 14 Norte 25 Norte 0 890.1 0.4 45
2019-06-09 10:00:00 15.1 12 Norte 18 Norte 0 890 0.3 48
2019-06-09 09:00:00 13.8 9 Noroeste 13 Norte 0 889.8 0.1 46
2019-06-09 08:00:00 11.9 3 Sudeste 10 Sudeste 0 889.7 -0.1 52
2019-06-09 07:00:00 10.1 4 Sudeste 7 Este 0 889.7 -0.6 53
2019-06-09 06:00:00 10.6 3 Este 8 Este 0 889.7 -1 51
2019-06-09 05:00:00 12 7 Sudeste 12 Sudoeste 0 889.8 -1 45
2019-06-09 04:00:00 12.7 2 Sur 14 Sudoeste 0 890.3 -0.6 44
2019-06-09 03:00:00 14 3 Sudoeste 11 Oeste 0 890.7 -0.1 39
2019-06-09 02:00:00 15.3 7 Oeste 13 Noroeste 0 890.8 -0.2 35
2019-06-09 01:00:00 15.7 4 Sudoeste 9 Sudeste 0 890.9 0.4 30
2019-06-09 00:00:00 16.6 3 Sudeste 7 Sudoeste 0 890.8 0.6 36
2019-06-08 23:00:00 18.3 5 Sudoeste 13 Sudoeste 0 891 0.9 24
2019-06-08 22:00:00 19.1 6 Sudoeste 17 Sudoeste 0 890.5 0.6 22
2019-06-08 21:00:00 20.3 9 Sudoeste 22 Sudoeste 0 890.2 0.4 18
2019-06-08 20:00:00 21.2 13 Sur 30 Sur 0 890.1 0 17
2019-06-08 19:00:00 22.2 15 Sur 32 Sudoeste 0 889.9 -0.5 16
2019-06-08 18:00:00 23.4 18 Sur 36 Sur 0 889.8 -1.2 17
2019-06-08 17:00:00 23.6 16 Sur 35 Sur 0 890.1 -1.5 19
2019-06-08 16:00:00 23.2 14 Sur 41 Sudeste 0 890.4 -1.4 23
2019-06-08 15:00:00 22.6 14 Sur 32 Sur 0 891 -1.1 26
2019-06-08 14:00:00 21 14 Sur 36 Sur 0 891.6 -0.8 28
2019-06-08 13:00:00 20 15 Sur 29 Sudeste 0 891.8 -1 28
2019-06-08 12:00:00 18.7 15 Sudeste 33 Sudeste 0 892.1 -0.8 33
2019-06-08 11:00:00 17 12 Sudeste 25 Sur 0 892.4 -0.7 37
2019-06-08 10:00:00 12.9 2 Sur 6 Sudoeste 0 892.8 -0.1 46
2019-06-08 09:00:00 8.6 2 Sur 8 Sur 0 892.9 -0.1 58
2019-06-08 08:00:00 7.2 3 Sudeste 9 Sudeste 0 893.1 0 59
2019-06-08 07:00:00 4.5 0 Calma 7 Sur 0 892.9 -0.4 71
2019-06-08 06:00:00 5.2 2 Este 9 Sudeste 0 893 -0.6 67
2019-06-08 05:00:00 5.6 3 Sur 8 Sudoeste 0 893.1 -0.5 65
2019-06-08 04:00:00 6.2 2 Sur 7 Sur 0 893.3 -0.4 63
2019-06-08 03:00:00 7 4 Sur 6 Sur 0 893.6 0.1 60
2019-06-08 02:00:00 7.9 2 Sudoeste 6 Sudeste 0 893.6 0.6 59
2019-06-08 01:00:00 9.4 5 Sur 8 Sur 0 893.7 1.2 50
2019-06-08 00:00:00 10.7 5 Norte 13 Norte 0 893.5 1.4 46
2019-06-07 23:00:00 11.5 8 Norte 19 Norte 0 893 1.4 43
2019-06-07 22:00:00 13.1 10 Norte 20 Noroeste 0 892.5 1.5 38
2019-06-07 21:00:00 15.1 14 Norte 26 Noroeste 0 892.1 1.2 33
2019-06-07 20:00:00 16.6 15 Noroeste 27 Noroeste 0 891.6 0.9 31
2019-06-07 19:00:00 16.3 14 Norte 32 Norte 0 891 0.4 32
2019-06-07 18:00:00 16.5 14 Norte 36 Este 0 890.9 0.5 32
2019-06-07 17:00:00 16.2 15 Noroeste 31 Noroeste 0 890.7 0.6 33
2019-06-07 16:00:00 15.6 11 Noroeste 27 Oeste 0 890.6 0.8 36
2019-06-07 15:00:00 15 15 Noroeste 29 Noroeste 0 890.4 1.2 38
2019-06-07 14:00:00 13.3 15 Noroeste 30 Oeste 0 890.1 1.3 45
2019-06-07 13:00:00 12.3 15 Oeste 30 Noroeste 0 889.8 1.6 45
2019-06-07 12:00:00 11.3 15 Noroeste 29 Noroeste 0 889.2 1.7 53
2019-06-07 11:00:00 9.3 19 Noroeste 31 Oeste 0 888.8 2.1 60
2019-06-07 10:00:00 7.8 19 Noroeste 31 Noroeste 0 888.2 2 67
2019-06-07 09:00:00 7.1 15 Oeste 30 Noroeste 0 887.5 2.2 70
2019-06-07 08:00:00 5.8 16 Oeste 30 Noroeste 0 886.7 1.9 75
2019-06-07 07:00:00 5.1 14 Noroeste 23 Oeste 0 886.2 1.9 79
2019-06-07 06:00:00 5.4 12 Oeste 35 Oeste 0 885.3 1.8 76
2019-06-07 05:00:00 5.9 16 Oeste 33 Oeste 0 884.8 1.7 69
2019-06-07 04:00:00 7 18 Oeste 33 Noroeste 0 884.3 1.6 78
2019-06-07 03:00:00 6.6 15 Oeste 33 Oeste 2 883.5 1.5 88
2019-06-07 02:00:00 8.1 9 Noroeste 34 Noroeste 0.6 883.1 1.2 91
2019-06-07 01:00:00 11 15 Noroeste 33 Sudoeste 1.6 882.7 1.3 82
2019-06-07 00:00:00 12.3 13 Sur 41 Sur 0 882 0.5 71
2019-06-06 23:00:00 13.4 19 Sudoeste 41 Sur 0 881.9 0.8 57
2019-06-06 22:00:00 14.8 15 Sudoeste 39 Sudoeste 0 881.4 -0.1 43
2019-06-06 21:00:00 16.9 17 Sur 38 Sur 0 881.5 -0.1 36
2019-06-06 20:00:00 17.9 21 Sur 41 Sur 0 881.1 -1.2 34
2019-06-06 19:00:00 18.2 19 Sur 47 Sur 0 881.5 -1.5 33
2019-06-06 18:00:00 18.6 21 Sur 45 Sur 0 881.6 -1.6 32
2019-06-06 17:00:00 18 27 Sur 48 Sur 0 882.3 -1.2 33
2019-06-06 16:00:00 16.8 21 Sur 48 Sur 0 883 -1 32
2019-06-06 15:00:00 17.7 25 Sur 51 Sur 0 883.2 -1.2 26
2019-06-06 14:00:00 17.4 20 Sur 41 Sur 0 883.5 -1.3 27
2019-06-06 13:00:00 16.1 17 Sur 40 Sur 0 884 -1.3 27
2019-06-06 12:00:00 15.1 15 Sur 32 Sur 0 884.4 -1.3 32
2019-06-06 11:00:00 13 17 Sur 28 Sur 0 884.8 -1.2 41
2019-06-06 10:00:00 11.1 8 Sur 14 Sur 0 885.3 -0.9 53
2019-06-06 09:00:00 8.1 5 Sur 10 Sur 0 885.7 -0.7 62
2019-06-06 08:00:00 6.6 5 Este 7 Este 0 886 -0.7 68
2019-06-06 07:00:00 5 2 Sudeste 5 Sudeste 0 886.2 -0.8 72
2019-06-06 06:00:00 5.3 4 Este 7 Sudeste 0 886.4 -0.8 72
2019-06-06 05:00:00 6.5 3 Noroeste 8 Noroeste 0 886.7 -0.8 66
2019-06-06 04:00:00 7.1 5 Noroeste 10 Noroeste 0 887 -0.7 64
2019-06-06 03:00:00 8 4 Noroeste 11 Noroeste 0 887.2 -0.4 61
2019-06-06 02:00:00 8.9 7 Noroeste 12 Noroeste 0 887.5 0.2 58
2019-06-06 01:00:00 9.5 8 Noroeste 17 Norte 0 887.7 1.1 56
2019-06-06 00:00:00 10.6 12 Noroeste 28 Noroeste 0 887.6 1.1 52
2019-06-05 23:00:00 11.7 13 Noroeste 27 Noroeste 0 887.3 1 47
2019-06-05 22:00:00 12.8 17 Noroeste 26 Noroeste 0 886.6 0.4 42
2019-06-05 21:00:00 14.2 14 Noroeste 27 Oeste 0 886.5 0.2 32
2019-06-05 20:00:00 15.1 17 Oeste 32 Oeste 0 886.3 0 31
2019-06-05 19:00:00 16.3 19 Oeste 32 Noroeste 0 886.2 -0.4 28
2019-06-05 18:00:00 16 15 Oeste 34 Oeste 0 886.3 -0.3 30
2019-06-05 17:00:00 15.5 18 Noroeste 42 Noroeste 0 886.3 -0.2 31
2019-06-05 16:00:00 15.7 20 Oeste 46 Oeste 0 886.6 -0.3 33
2019-06-05 15:00:00 14.8 20 Noroeste 42 Noroeste 0 886.6 0 36
2019-06-05 14:00:00 14.1 19 Oeste 42 Oeste 0 886.5 0.5 40
2019-06-05 13:00:00 12 19 Oeste 40 Noroeste 0 886.9 1.1 47
2019-06-05 12:00:00 10.3 23 Noroeste 41 Noroeste 0 886.6 1.4 57
2019-06-05 11:00:00 9 22 Noroeste 41 Oeste 0 886 1.3 62
2019-06-05 10:00:00 8.1 24 Noroeste 37 Noroeste 0 885.8 1.7 67
2019-06-05 09:00:00 8.2 19 Noroeste 34 Oeste 0 885.2 1.6 68
2019-06-05 08:00:00 7.1 17 Noroeste 35 Noroeste 0 884.7 1.1 75
2019-06-05 07:00:00 7.4 11 Oeste 22 Noroeste 0 884.1 0.3 75
2019-06-05 06:00:00 7.7 18 Noroeste 39 Noroeste 0 883.6 -0.2 77
2019-06-05 05:00:00 8.3 22 Noroeste 36 Noroeste 0 883.6 -0.1 73
2019-06-05 04:00:00 9.3 23 Noroeste 35 Noroeste 0 883.8 0 72
2019-06-05 03:00:00 10.3 22 Noroeste 36 Noroeste 0 883.8 0 68
2019-06-05 02:00:00 12.5 15 Noroeste 29 Noroeste 0 883.7 -0.2 56
2019-06-05 01:00:00 13 22 Noroeste 34 Noroeste 0 883.8 -0.1 60
2019-06-05 00:00:00 14.4 19 Noroeste 30 Noroeste 0 883.8 -0.3 59
2019-06-04 23:00:00 14.8 13 Norte 22 Noroeste 0 883.9 -0.3 64
2019-06-04 22:00:00 15.6 18 Noroeste 25 Norte 0 883.9 0.4 60
2019-06-04 21:00:00 17.4 15 Noroeste 31 Noroeste 0 884.1 0.6 56
2019-06-04 20:00:00 18.6 22 Noroeste 36 Noroeste 0 884.2 0.5 54
2019-06-04 19:00:00 22 14 Sudoeste 39 Oeste 0 883.5 -0.5 36
2019-06-04 18:00:00 24.1 17 Sudoeste 34 Sur 0 883.5 -0.7 30
2019-06-04 17:00:00 24.4 16 Sur 36 Sur 0 883.7 -0.9 20
2019-06-04 16:00:00 22.7 16 Norte 32 Noroeste 0 884 -1.2 35
2019-06-04 15:00:00 23.3 13 Norte 28 Norte 0 884.2 -1.4 34
2019-06-04 14:00:00 23.2 13 Noroeste 29 Noroeste 0 884.6 -1.1 39
2019-06-04 13:00:00 22.4 6 Sudeste 20 Norte 0 885.2 -0.7 37
2019-06-04 12:00:00 20.1 12 Noroeste 22 Norte 0 885.6 -0.4 47
2019-06-04 11:00:00 18.1 13 Norte 19 Norte 0 885.7 -0.2 58
2019-06-04 10:00:00 16.7 8 Norte 15 Nordeste 0 885.9 0.3 65
2019-06-04 09:00:00 14.6 9 Norte 14 Nordeste 0 886 0.7 69
2019-06-04 08:00:00 13 7 Nordeste 15 Nordeste 0 885.9 0.2 79
2019-06-04 07:00:00 12.6 6 Norte 18 Nordeste 0 885.6 -0.8 73
2019-06-04 06:00:00 13.1 3 Nordeste 8 Este 0 885.3 -1.6 46
2019-06-04 05:00:00 13.9 3 Nordeste 9 Este 0 885.7 -2.1 51
2019-06-04 04:00:00 15.1 3 Noroeste 9 Oeste 0 886.4 -1.9 53
2019-06-04 03:00:00 15.8 6 Este 8 Nordeste 0 886.9 -1.8 55
2019-06-04 02:00:00 16.7 2 Este 9 Sudoeste 0 887.8 -0.9 36
2019-06-04 01:00:00 19.3 5 Sudoeste 13 Sur 0 888.3 0 31
2019-06-04 00:00:00 20.2 6 Sur 14 Sudoeste 0 888.7 0.3 27
2019-06-03 23:00:00 21.7 8 Sudoeste 20 Sudoeste 0 888.7 0.3 23
2019-06-03 22:00:00 23.6 9 Sudoeste 30 Sudoeste 0 888.3 -0.4 19
2019-06-03 21:00:00 25.7 15 Sudoeste 39 Sur 0 888.4 -0.5 17
2019-06-03 20:00:00 27.7 17 Sudoeste 31 Sudoeste 0 888.4 -0.6 14
2019-06-03 19:00:00 28.6 18 Sudoeste 42 Sudoeste 0 888.7 -0.5 12
2019-06-03 18:00:00 28.8 22 Sudoeste 45 Sudoeste 0 888.9 -0.7 13
2019-06-03 17:00:00 29.3 19 Sudoeste 40 Oeste 0 889 -1 15
2019-06-03 16:00:00 29.6 19 Oeste 40 Noroeste 0 889.2 -1.2 10
2019-06-03 15:00:00 29.5 19 Oeste 39 Oeste 0 889.6 -1 11
2019-06-03 14:00:00 28.9 21 Oeste 42 Sudoeste 0 890 -0.8 13
2019-06-03 13:00:00 28.3 15 Oeste 36 Oeste 0 890.4 -0.6 14
2019-06-03 12:00:00 26.4 18 Sudoeste 36 Sudoeste 0 890.6 -0.6 17
2019-06-03 11:00:00 23.6 5 Oeste 9 Este 0 890.8 -0.2 27
2019-06-03 10:00:00 20.9 6 Nordeste 16 Norte 0 891 0.1 34
2019-06-03 09:00:00 18.3 3 Oeste 5 Noroeste 0 891.2 0.2 40
2019-06-03 08:00:00 16.2 4 Oeste 15 Noroeste 0 891 0 45
2019-06-03 07:00:00 15.9 4 Sudeste 7 Sudeste 0 890.9 -0.3 44
2019-06-03 06:00:00 15.2 2 Sudeste 5 Oeste 0 891 -0.7 46
2019-06-03 05:00:00 15.3 2 Sudeste 7 Sudeste 0 891 -1 49
2019-06-03 04:00:00 15.6 2 Este 3 Este 0 891.2 -1.3 46
2019-06-03 03:00:00 16.6 0 Calma 7 Sur 0 891.7 -0.6 43
2019-06-03 02:00:00 18.6 2 Noroeste 7 Oeste 0 892 0.1 39
2019-06-03 01:00:00 20.4 5 Oeste 18 Sudoeste 0 892.5 1.1 31
2019-06-03 00:00:00 21.4 8 Noroeste 16 Noroeste 0 892.3 1 28
2019-06-02 23:00:00 22.8 4 Sudoeste 14 Sudoeste 0 891.9 0.9 24
2019-06-02 22:00:00 24.4 4 Noroeste 17 Sudoeste 0 891.4 0.5 21
2019-06-02 21:00:00 25.9 13 Oeste 29 Oeste 0 891.3 0.6 20
2019-06-02 20:00:00 27.4 15 Oeste 33 Oeste 0 891 0.1 20
2019-06-02 19:00:00 27.5 15 Oeste 36 Noroeste 0 890.9 -0.2 21
2019-06-02 18:00:00 28.2 11 Norte 39 Noroeste 0 890.7 -0.8 20
2019-06-02 17:00:00 29.2 4 Sudoeste 19 Oeste 0 890.9 -1.3 20
2019-06-02 16:00:00 29.4 6 Norte 19 Norte 0 891.1 -1.5 18
2019-06-02 15:00:00 29.7 7 Noroeste 24 Oeste 0 891.5 -1.3 19
2019-06-02 14:00:00 29.6 8 Sudoeste 27 Sudoeste 0 892.2 -0.8 19
2019-06-02 13:00:00 28.8 10 Sudoeste 21 Oeste 0 892.6 -0.4 20
2019-06-02 12:00:00 27.6 6 Oeste 16 Noroeste 0 892.8 -0.2 20
2019-06-02 11:00:00 26 4 Sur 8 Sudoeste 0 893 0.1 20
2019-06-02 10:00:00 22.1 3 Sur 9 Sudoeste 0 893 0.3 32
2019-06-02 09:00:00 19.1 4 Sudoeste 8 Sudoeste 0 893 0.5 38
2019-06-02 08:00:00 16.3 2 Sur 8 Sudoeste 0 892.9 0.3 46
2019-06-02 07:00:00 14.6 3 Sur 9 Sudeste 0 892.7 -0.1 52
2019-06-02 06:00:00 15.3 4 Sur 8 Sur 0 892.5 -0.6 48
2019-06-02 05:00:00 16.5 5 Sur 8 Sur 0 892.6 -0.6 47
2019-06-02 04:00:00 18.5 3 Sudeste 12 Oeste 0 892.8 -0.2 39
2019-06-02 03:00:00 20.8 10 Oeste 32 Sudoeste 0 893.1 0 32
2019-06-02 02:00:00 20.9 11 Sudoeste 23 Sudoeste 0 893.2 0.4 33
2019-06-02 01:00:00 20.5 5 Sur 14 Sudoeste 0 893 0.7 32
2019-06-02 00:00:00 22 5 Sur 13 Sudoeste 0 893.1 1.1 29
2019-06-01 23:00:00 23.2 4 Sudoeste 12 Sudoeste 0 892.8 1 27
2019-06-01 22:00:00 25.3 7 Sur 15 Sudoeste 0 892.3 0.6 25
2019-06-01 21:00:00 28.2 5 Sur 16 Nordeste 0 892 0 21
2019-06-01 20:00:00 30.2 7 Este 20 Este 0 891.8 -0.5 15
2019-06-01 19:00:00 30.8 10 Noroeste 29 Noroeste 0 891.7 -1.2 13
2019-06-01 18:00:00 30.6 10 Norte 28 Norte 0 892 -1.2 13
2019-06-01 17:00:00 30.4 15 Noroeste 36 Noroeste 0 892.3 -1.6 13
2019-06-01 16:00:00 30.1 10 Norte 28 Noroeste 0 892.9 -1.3 13
2019-06-01 15:00:00 29 12 Norte 28 Norte 0 893.2 -1.3 15
2019-06-01 14:00:00 28.9 12 Norte 19 Norte 0 893.9 -0.7 15
2019-06-01 13:00:00 28 10 Nordeste 23 Oeste 0 894.2 -0.5 18
2019-06-01 12:00:00 27.2 5 Este 12 Sudeste 0 894.5 0 20
2019-06-01 11:00:00 25 8 Sudeste 17 Sur 0 894.6 0 24
2019-06-01 10:00:00 22.1 7 Sur 20 Sudeste 0 894.7 0.5 29
2019-06-01 09:00:00 18.5 10 Sur 19 Sur 0 894.5 0.6 35
2019-06-01 08:00:00 17.4 12 Sur 21 Sudeste 0 894.6 0.6 35
2019-06-01 07:00:00 15.8 10 Sur 18 Sur 0 894.2 0.1 36
2019-06-01 06:00:00 15.9 8 Sur 17 Sur 0 893.9 -0.3 35
2019-06-01 05:00:00 15.5 8 Sudeste 13 Sudeste 0 894 -0.4 39
2019-06-01 04:00:00 14.4 4 Sur 8 Sudeste 0 894.1 -0.6 46
2019-06-01 03:00:00 15.3 3 Sur 9 Sur 0 894.2 -0.7 45
2019-06-01 02:00:00 16.2 4 Sur 7 Sur 0 894.4 -0.3 38
2019-06-01 01:00:00 18.8 5 Sur 12 Sudeste 0 894.7 0.4 31
2019-06-01 00:00:00 20 6 Sur 12 Sur 0 894.9 1 30
2019-05-31 23:00:00 22.1 8 Sudeste 13 Sudeste 0 894.7 0.9 26
2019-05-31 22:00:00 24.8 5 Sudeste 15 Norte 0 894.3 0.4 18
2019-05-31 21:00:00 27.4 12 Norte 25 Norte 0 893.9 -0.2 12
2019-05-31 20:00:00 28.5 13 Noroeste 28 Noroeste 0 893.8 -0.7 12
2019-05-31 19:00:00 28.8 16 Norte 28 Norte 0 893.9 -0.9 13
2019-05-31 18:00:00 29.3 10 Norte 31 Norte 0 894.1 -1.1 14
2019-05-31 17:00:00 29 10 Noroeste 28 Norte 0 894.5 -1.1 14
2019-05-31 16:00:00 28.3 11 Norte 30 Noroeste 0 894.8 -1.3 15
2019-05-31 15:00:00 27.9 9 Norte 25 Oeste 0 895.2 -1.1 17
2019-05-31 14:00:00 27.4 9 Sudoeste 24 Este 0 895.6 -0.7 18
2019-05-31 13:00:00 26.2 6 Sur 12 Sur 0 896.1 -0.2 19
2019-05-31 12:00:00 25 6 Sudoeste 15 Sudeste 0 896.3 -0.1 21
2019-05-31 11:00:00 23.9 7 Sudeste 17 Sudeste 0 896.3 -0.2 26
2019-05-31 10:00:00 20.7 8 Sudeste 13 Sudeste 0 896.3 0 33
2019-05-31 09:00:00 16.4 4 Sur 11 Sudoeste 0 896.4 0.3 37
2019-05-31 08:00:00 14.7 5 Sudoeste 10 Sudoeste 0 896.5 0.2 40
2019-05-31 07:00:00 13.8 6 Sudoeste 12 Sur 0 896.3 -0.1 41
2019-05-31 06:00:00 14.7 7 Sur 12 Sur 0 896.1 -0.8 39
2019-05-31 05:00:00 17 6 Sur 22 Este 0 896.3 -0.7 33
2019-05-31 04:00:00 17.5 13 Este 29 Este 0 896.4 -0.7 33
2019-05-31 03:00:00 18 17 Sudeste 28 Sur 0 896.9 -0.2 29
2019-05-31 02:00:00 15.1 0 Calma 6 Sudoeste 0 897 0.1 43
2019-05-31 01:00:00 17.9 5 Sudoeste 18 Nordeste 0 897.1 1.1 34
2019-05-31 00:00:00 19.2 12 Nordeste 24 Nordeste 0 897.1 1.4 31
2019-05-30 23:00:00 21 14 Nordeste 24 Nordeste 0 896.9 1.4 26
2019-05-30 22:00:00 22.9 10 Nordeste 19 Nordeste 0 896 0.3 18
2019-05-30 21:00:00 25.6 10 Nordeste 21 Nordeste 0 895.7 -0.2 16
2019-05-30 20:00:00 26.3 12 Nordeste 26 Nordeste 0 895.5 -0.8 15
2019-05-30 19:00:00 26.6 13 Norte 39 Norte 0 895.7 -0.9 15
2019-05-30 18:00:00 26.7 17 Norte 35 Norte 0 895.9 -1.1 14
2019-05-30 17:00:00 26.6 10 Nordeste 28 Nordeste 0 896.3 -0.9 16
2019-05-30 16:00:00 25.9 13 Nordeste 27 Nordeste 0 896.6 -0.8 19
2019-05-30 15:00:00 25.1 13 Nordeste 27 Nordeste 0 897 -0.6 18
2019-05-30 14:00:00 23.9 10 Nordeste 27 Norte 0 897.2 -0.5 19
2019-05-30 13:00:00 22.3 13 Norte 26 Nordeste 0 897.4 -0.4 24
2019-05-30 12:00:00 20.5 8 Norte 17 Norte 0 897.6 -0.2 32
2019-05-30 11:00:00 18.9 8 Norte 16 Nordeste 0 897.7 0.4 36
2019-05-30 10:00:00 16.1 6 Noroeste 13 Norte 0 897.8 0.8 44
2019-05-30 09:00:00 12.7 3 Oeste 6 Sudeste 0 897.8 1 53
2019-05-30 08:00:00 10.2 3 Sudeste 6 Sudeste 0 897.3 0.5 59
2019-05-30 07:00:00 7.9 3 Sudeste 4 Sur 0 897 0 67
2019-05-30 06:00:00 8.4 2 Sudoeste 8 Sur 0 896.8 -0.5 65
2019-05-30 05:00:00 8.4 4 Sudeste 6 Sudeste 0 896.8 -0.8 65
2019-05-30 04:00:00 8.9 3 Sudeste 10 Sur 0 897 -0.6 63
2019-05-30 03:00:00 10.1 5 Oeste 6 Oeste 0 897.3 -0.3 59
2019-05-30 02:00:00 11 0 Calma 8 Sur 0 897.6 0.2 55
2019-05-30 01:00:00 12.4 3 Sudoeste 10 Noroeste 0 897.6 1.1 54
2019-05-30 00:00:00 13.7 4 Norte 10 Nordeste 0 897.6 1.4 47
2019-05-29 23:00:00 14.9 5 Nordeste 18 Norte 0 897.4 1.6 42
2019-05-29 22:00:00 16.5 14 Norte 36 Norte 0 896.5 1 36
2019-05-29 21:00:00 18.9 18 Norte 36 Norte 0 896.2 0.7 34
2019-05-29 20:00:00 20.3 21 Nordeste 36 Norte 0 895.8 0.3 29
2019-05-29 19:00:00 21 19 Norte 37 Norte 0 895.5 -0.2 30
2019-05-29 18:00:00 21 20 Norte 38 Norte 0 895.5 -0.4 29
2019-05-29 17:00:00 20.6 17 Nordeste 35 Nordeste 0 895.5 -0.4 33
2019-05-29 16:00:00 20 19 Nordeste 36 Norte 0 895.7 -0.5 36
2019-05-29 15:00:00 19.4 19 Nordeste 37 Norte 0 895.9 -0.2 36
2019-05-29 14:00:00 18 16 Norte 37 Norte 0 895.9 -0.2 41
2019-05-29 13:00:00 16 20 Norte 34 Norte 0 896.2 0.1 44
2019-05-29 12:00:00 14.9 18 Norte 34 Nordeste 0 896.1 0.2 44
2019-05-29 11:00:00 13.1 19 Norte 32 Nordeste 0 896.1 0.6 48
2019-05-29 10:00:00 11.3 9 Norte 23 Nordeste 0 896.1 0.9 54
2019-05-29 09:00:00 9.2 10 Nordeste 18 Nordeste 0 895.9 1.1 60
2019-05-29 08:00:00 6.9 5 Noroeste 10 Oeste 0 895.5 0.8 70
2019-05-29 07:00:00 5.5 5 Noroeste 10 Noroeste 0 895.2 0.5 76
2019-05-29 06:00:00 5.6 6 Noroeste 13 Noroeste 0 894.8 0.2 76
2019-05-29 05:00:00 6.1 7 Noroeste 15 Norte 0 894.7 0.2 73
2019-05-29 04:00:00 7 10 Norte 15 Norte 0 894.7 0.5 69
2019-05-29 03:00:00 8 9 Norte 20 Norte 0 894.6 0.9 63
2019-05-29 02:00:00 9.3 10 Norte 18 Norte 0 894.5 1.7 56
2019-05-29 01:00:00 10.7 10 Norte 18 Norte 0 894.2 2.2 49
2019-05-29 00:00:00 11.8 11 Norte 26 Nordeste 0 893.7 2.1 52
2019-05-28 23:00:00 13.7 13 Norte 27 Nordeste 0 892.8 1.6 46
2019-05-28 22:00:00 15.8 10 Nordeste 22 Nordeste 0 892 1.1 40
2019-05-28 21:00:00 18.1 15 Norte 31 Norte 0 891.6 0.7 34
2019-05-28 20:00:00 19.3 21 Norte 36 Noroeste 0 891.2 0.4 31
2019-05-28 19:00:00 20.1 22 Norte 39 Norte 0 890.9 0 28
2019-05-28 18:00:00 21.1 22 Noroeste 36 Oeste 0 890.9 -0.2 25
2019-05-28 17:00:00 20.5 23 Norte 40 Noroeste 0 890.8 -0.4 25
2019-05-28 16:00:00 19.8 16 Norte 34 Norte 0 890.9 -0.4 24
2019-05-28 15:00:00 18.5 19 Norte 38 Noroeste 0 891.1 -0.1 27
2019-05-28 14:00:00 17.3 19 Norte 34 Noroeste 0 891.2 0.2 29
2019-05-28 13:00:00 15.4 17 Noroeste 35 Noroeste 0 891.3 0.7 37
2019-05-28 12:00:00 14 18 Norte 31 Noroeste 0 891.2 1 44
2019-05-28 11:00:00 12.2 18 Norte 28 Norte 0 891 1.2 52
2019-05-28 10:00:00 10.2 14 Norte 23 Norte 0 890.6 1.1 67
2019-05-28 09:00:00 8.7 13 Norte 21 Norte 0 890.2 1.3 75
2019-05-28 08:00:00 7.5 11 Norte 16 Nordeste 0 889.8 1 82
2019-05-28 07:00:00 7.7 10 Norte 17 Norte 0 889.5 0.5 83
2019-05-28 06:00:00 8.6 6 Noroeste 11 Noroeste 0 888.9 0 81
2019-05-28 05:00:00 9.6 6 Norte 11 Norte 0 888.8 -0.1 80
2019-05-28 04:00:00 10.4 5 Norte 13 Norte 0 889 0.6 78
2019-05-28 03:00:00 11 7 Norte 17 Norte 0 888.9 0.8 76
2019-05-28 02:00:00 12.8 9 Norte 19 Norte 0 888.9 1 68
2019-05-28 01:00:00 14.3 6 Norte 25 Nordeste 0 888.4 1 59
2019-05-28 00:00:00 16.3 13 Nordeste 22 Nordeste 0 888.1 0.5 52